This is the latest recevied weather packets stored in our database for station/object K6CED. If no packets are shown the sender has not sent any weather packets the latest 10 day(s).
| Time | Temp. | Humidity | Pressure | Rain* | Wind** | Luminosity | Snow |
|---|---|---|---|---|---|---|---|
| 1777751642 | 25° C | 53% | 1014.8 hPa | 0 mm | - | 921 W/m² | - |
| 1777751339 | 24.44° C | 55% | 1015 hPa | 0 mm | - | 955 W/m² | - |
| 1777751035 | 25° C | 54% | 1015 hPa | 0 mm | - | 576 W/m² | - |
| 1777750731 | 25° C | 55% | 1015.1 hPa | 0 mm | - | 857 W/m² | - |
| 1777750429 | 25° C | 55% | 1015.3 hPa | 0 mm | - | 887 W/m² | - |
| 1777750124 | 24.44° C | 55% | 1015 hPa | 0 mm | - | 774 W/m² | - |
| 1777749821 | 24.44° C | 55% | 1015.3 hPa | 0 mm | - | 787 W/m² | - |
| 1777749519 | 24.44° C | 55% | 1015.4 hPa | 0 mm | - | 816 W/m² | - |
| 1777749217 | 23.89° C | 56% | 1015.4 hPa | 0 mm | - | 845 W/m² | - |
| 1777748913 | 24.44° C | 53% | 1015.5 hPa | 0 mm | - | 740 W/m² | - |
| 1777748611 | 23.89° C | 55% | 1015.5 hPa | 0 mm | - | 838 W/m² | - |
| 1777748306 | 23.33° C | 57% | 1015.5 hPa | 0 mm | - | 811 W/m² | - |
| 1777748002 | 23.33° C | 57% | 1015.5 hPa | 0 mm | - | 845 W/m² | - |
| 1777747700 | 22.78° C | 59% | 1015.7 hPa | 0 mm | - | 760 W/m² | - |
| 1777747395 | 22.22° C | 62% | 1015.9 hPa | 0 mm | - | 801 W/m² | - |
| 1777747092 | 22.78° C | 62% | 1015.8 hPa | 0 mm | - | 772 W/m² | - |
| 1777746783 | 22.78° C | 62% | 1015.7 hPa | 0 mm | - | 781 W/m² | - |
| 1777746478 | 22.22° C | 64% | 1015.7 hPa | 0 mm | - | 794 W/m² | - |
| 1777746173 | 22.22° C | 63% | 1015.8 hPa | 0 mm | - | 818 W/m² | - |
| 1777745869 | 21.67° C | 66% | 1016.1 hPa | 0 mm | - | 855 W/m² | - |
| 1777745564 | 21.11° C | 68% | 1016.2 hPa | 0 mm | - | 858 W/m² | - |
| 1777745260 | 21.67° C | 67% | 1016.2 hPa | 0 mm | - | 847 W/m² | - |
| 1777744958 | 20.56° C | 68% | 1016.2 hPa | 0 mm | - | 836 W/m² | - |
| 1777744657 | 20° C | 70% | 1016.2 hPa | 0 mm | - | 824 W/m² | - |
| 1777744352 | 20.56° C | 71% | 1016.6 hPa | 0 mm | - | 807 W/m² | - |
* Rain latest hour (hover to see other rain measurements)
** Current wind speed in m/s (hover to see current wind gust speed)